createdAt,value
2022-09-25T00:00:50.221Z,99803.09
2022-09-25T00:03:18.099Z,99804.22
2022-09-25T00:05:45.954Z,99803.78
2022-09-25T00:08:13.151Z,99797.41
2022-09-25T00:10:48.579Z,99806.44
2022-09-25T00:13:16.562Z,99790.97
2022-09-25T00:15:51.138Z,99793.19
2022-09-25T00:18:37.605Z,99798.09
2022-09-25T00:21:05.482Z,99793.50
2022-09-25T00:23:32.298Z,99793.63
2022-09-25T00:25:59.808Z,99797.53
2022-09-25T00:28:29.053Z,99802.53
2022-09-25T00:30:56.486Z,99801.28
2022-09-25T00:33:23.631Z,99799.75
2022-09-25T00:35:50.324Z,99796.69
2022-09-25T00:38:16.753Z,99793.50
2022-09-25T00:40:43.362Z,99789.97
2022-09-25T00:43:14.674Z,99791.66
2022-09-25T00:45:42.418Z,99788.63
2022-09-25T00:48:14.065Z,99785.25
2022-09-25T00:50:48.768Z,99782.19
2022-09-25T00:53:21.265Z,99779.28
2022-09-25T00:55:47.773Z,99775.78
2022-09-25T00:58:17.630Z,99780.81
2022-09-25T01:00:44.514Z,99780.38
2022-09-25T01:03:11.424Z,99785.25
2022-09-25T01:05:41.859Z,99784.16
2022-09-25T01:08:11.120Z,99787.91
2022-09-25T01:10:37.619Z,99784.69
2022-09-25T01:13:04.662Z,99785.38
2022-09-25T01:15:37.108Z,99773.50
2022-09-25T01:18:25.347Z,99788.00
2022-09-25T01:21:28.103Z,99783.38
2022-09-25T01:24:11.641Z,99783.53
2022-09-25T01:27:13.380Z,99779.91
2022-09-25T01:29:53.994Z,99776.56
2022-09-25T01:32:25.846Z,99776.94
2022-09-25T01:35:18.574Z,99772.22
2022-09-25T01:37:49.637Z,99777.34
2022-09-25T01:40:16.193Z,99774.72
2022-09-25T01:42:55.625Z,99776.81
2022-09-25T01:45:28.144Z,99771.66
2022-09-25T01:47:57.192Z,99774.00
2022-09-25T01:50:48.003Z,99769.81
2022-09-25T01:53:18.756Z,99766.19
2022-09-25T01:55:49.185Z,99764.09
2022-09-25T01:58:39.072Z,99757.00
2022-09-25T02:01:14.966Z,99758.09
2022-09-25T02:03:46.654Z,99763.53
2022-09-25T02:06:16.957Z,99761.84
2022-09-25T02:09:04.304Z,99762.25
2022-09-25T02:11:36.317Z,99758.19
2022-09-25T02:14:06.891Z,99754.56
2022-09-25T02:16:38.524Z,99760.97
2022-09-25T02:19:24.164Z,99753.16
2022-09-25T02:22:04.542Z,99752.06
2022-09-25T02:24:39.487Z,99746.34
2022-09-25T02:27:06.154Z,99741.41
2022-09-25T02:29:32.705Z,99737.81
2022-09-25T02:32:09.021Z,99737.63
2022-09-25T02:34:36.249Z,99730.34
2022-09-25T02:37:03.281Z,99731.22
2022-09-25T02:39:30.731Z,99732.31
2022-09-25T02:42:14.682Z,99733.69
2022-09-25T02:45:18.192Z,99732.31
2022-09-25T02:47:56.552Z,99737.88
2022-09-25T02:50:41.219Z,99735.38
2022-09-25T02:53:18.532Z,99737.06
2022-09-25T02:55:51.963Z,99728.19
2022-09-25T02:58:24.676Z,99722.19
2022-09-25T03:00:52.925Z,99723.31
2022-09-25T03:03:20.158Z,99724.75
2022-09-25T03:05:48.635Z,99729.00
2022-09-25T03:08:33.971Z,99723.31
2022-09-25T03:11:00.689Z,99728.22
2022-09-25T03:13:32.023Z,99723.06
2022-09-25T03:16:04.381Z,99730.03
2022-09-25T03:18:31.527Z,99727.38
2022-09-25T03:20:58.617Z,99722.94
2022-09-25T03:23:25.270Z,99719.09
2022-09-25T03:25:55.273Z,99721.88
2022-09-25T03:28:22.689Z,99717.53
2022-09-25T03:31:02.043Z,99716.69
2022-09-25T03:33:30.823Z,99716.47
2022-09-25T03:36:03.163Z,99716.81
2022-09-25T03:38:29.580Z,99723.28
2022-09-25T03:40:56.077Z,99729.38
2022-09-25T03:43:22.630Z,99721.34
2022-09-25T03:45:49.113Z,99726.47
2022-09-25T03:48:15.644Z,99729.41
2022-09-25T03:50:42.114Z,99728.72
2022-09-25T03:53:08.595Z,99717.44
2022-09-25T03:55:35.032Z,99725.53
2022-09-25T03:58:01.436Z,99709.69
2022-09-25T04:00:27.884Z,99719.16
2022-09-25T04:02:54.355Z,99720.59
2022-09-25T04:05:21.097Z,99730.03
2022-09-25T04:07:48.208Z,99732.09
2022-09-25T04:10:14.726Z,99723.75
2022-09-25T04:12:43.524Z,99728.09
2022-09-25T04:15:10.220Z,99728.63
2022-09-25T04:17:36.636Z,99729.06
2022-09-25T04:20:04.611Z,99720.03
2022-09-25T04:22:31.101Z,99727.13
2022-09-25T04:24:58.349Z,99722.41
2022-09-25T04:27:24.788Z,99721.72
2022-09-25T04:29:51.177Z,99717.25
2022-09-25T04:32:36.192Z,99718.66
2022-09-25T04:35:04.079Z,99721.59
2022-09-25T04:37:30.761Z,99712.56
2022-09-25T04:39:58.264Z,99715.06
2022-09-25T04:42:25.454Z,99714.50
2022-09-25T04:44:53.611Z,99717.56
2022-09-25T04:47:21.253Z,99716.34
2022-09-25T04:49:48.144Z,99715.34
2022-09-25T04:52:15.847Z,99712.44
2022-09-25T04:54:42.802Z,99715.22
2022-09-25T04:57:11.026Z,99708.81
2022-09-25T04:59:37.934Z,99710.09
2022-09-25T05:02:04.714Z,99718.72
2022-09-25T05:04:31.396Z,99703.81
2022-09-25T05:06:57.998Z,99705.06
2022-09-25T05:09:24.451Z,99709.53
2022-09-25T05:11:51.006Z,99707.00
2022-09-25T05:14:17.441Z,99715.06
2022-09-25T05:16:46.292Z,99717.44
2022-09-25T05:19:13.092Z,99721.03
2022-09-25T05:21:39.907Z,99719.75
2022-09-25T05:24:08.448Z,99722.41
2022-09-25T05:26:36.213Z,99724.91
2022-09-25T05:29:04.349Z,99725.56
2022-09-25T05:31:33.715Z,99725.38
2022-09-25T05:34:00.276Z,99732.47
2022-09-25T05:36:26.888Z,99729.94
2022-09-25T05:38:54.498Z,99740.81
2022-09-25T05:41:21.660Z,99737.00
2022-09-25T05:43:48.106Z,99746.06
2022-09-25T05:46:15.415Z,99741.72
2022-09-25T05:48:42.072Z,99746.53
2022-09-25T05:51:08.677Z,99748.28
2022-09-25T05:53:35.180Z,99744.09
2022-09-25T05:56:04.461Z,99752.31
2022-09-25T05:58:33.419Z,99738.84
2022-09-25T06:01:01.594Z,99747.09
2022-09-25T06:03:30.885Z,99752.34
2022-09-25T06:05:58.223Z,99758.25
2022-09-25T06:08:25.798Z,99756.00
2022-09-25T06:10:54.194Z,99746.88
2022-09-25T06:13:22.081Z,99755.81
2022-09-25T06:15:50.817Z,99757.75
2022-09-25T06:18:17.397Z,99755.84
2022-09-25T06:20:44.094Z,99749.88
2022-09-25T06:23:10.697Z,99752.94
2022-09-25T06:25:37.222Z,99754.78
2022-09-25T06:28:04.891Z,99749.97
2022-09-25T06:30:36.275Z,99743.84
2022-09-25T06:33:13.504Z,99754.34
2022-09-25T06:35:44.199Z,99752.09
2022-09-25T06:38:11.211Z,99749.78
2022-09-25T06:40:40.958Z,99754.31
2022-09-25T06:43:10.646Z,99759.44
2022-09-25T06:45:39.133Z,99761.13
2022-09-25T06:48:10.179Z,99758.50
2022-09-25T06:50:41.496Z,99751.06
2022-09-25T06:53:08.851Z,99747.06
2022-09-25T06:55:35.613Z,99755.72
2022-09-25T06:58:03.090Z,99749.91
2022-09-25T07:00:29.729Z,99747.94
2022-09-25T07:03:17.122Z,99747.06
2022-09-25T07:05:44.532Z,99743.75
2022-09-25T07:08:13.987Z,99745.09
2022-09-25T07:10:45.102Z,99746.06
2022-09-25T07:13:12.230Z,99745.00
2022-09-25T07:15:39.289Z,99740.22
2022-09-25T07:18:05.870Z,99748.56
2022-09-25T07:20:32.606Z,99756.09
2022-09-25T07:23:04.347Z,99782.16
2022-09-25T07:25:33.961Z,99793.50
2022-09-25T07:28:00.451Z,99812.97
2022-09-25T07:30:32.344Z,99823.25
2022-09-25T07:33:00.267Z,99828.44
2022-09-25T07:35:27.301Z,99830.28
2022-09-25T07:37:59.518Z,99840.28
2022-09-25T07:40:28.924Z,99836.84
2022-09-25T07:43:03.895Z,99838.75
2022-09-25T07:45:31.313Z,99840.41
2022-09-25T07:48:00.790Z,99833.63
2022-09-25T07:50:28.714Z,99829.19
2022-09-25T07:52:55.674Z,99826.69
2022-09-25T07:55:22.727Z,99829.59
2022-09-25T07:57:52.174Z,99821.06
2022-09-25T08:00:18.835Z,99827.75
2022-09-25T08:02:45.443Z,99829.22
2022-09-25T08:05:12.407Z,99818.72
2022-09-25T08:07:40.089Z,99825.28
2022-09-25T08:10:07.420Z,99823.19
2022-09-25T08:12:34.224Z,99829.28
2022-09-25T08:15:00.718Z,99819.50
2022-09-25T08:17:31.224Z,99814.38
2022-09-25T08:19:58.471Z,99816.16
2022-09-25T08:22:25.126Z,99798.38
2022-09-25T08:24:51.867Z,99788.91
2022-09-25T08:27:18.512Z,99786.16
2022-09-25T08:29:45.437Z,99776.78
2022-09-25T08:32:12.161Z,99757.75
2022-09-25T08:34:41.464Z,99760.44
2022-09-25T08:37:09.672Z,99743.91
2022-09-25T08:39:36.340Z,99736.59
2022-09-25T08:42:06.560Z,99733.09
2022-09-25T08:44:56.950Z,99727.13
2022-09-25T08:47:48.148Z,99718.38
2022-09-25T08:50:22.785Z,99712.28
2022-09-25T08:52:53.540Z,99716.78
2022-09-25T08:55:46.123Z,99707.31
2022-09-25T08:58:21.029Z,99707.72
2022-09-25T09:00:48.006Z,99706.69
2022-09-25T09:03:15.329Z,99706.50
2022-09-25T09:05:51.717Z,99709.94
2022-09-25T09:08:20.677Z,99701.38
2022-09-25T09:10:53.248Z,99703.47
2022-09-25T09:13:30.729Z,99694.94
2022-09-25T09:16:02.089Z,99693.91
2022-09-25T09:18:36.519Z,99692.25
2022-09-25T09:21:28.706Z,99689.63
2022-09-25T09:24:26.360Z,99677.41
2022-09-25T09:27:16.359Z,99690.88
2022-09-25T09:30:15.892Z,99683.41
2022-09-25T09:33:01.753Z,99678.75
2022-09-25T09:35:49.186Z,99683.59
2022-09-25T09:38:21.678Z,99679.16
2022-09-25T09:41:26.970Z,99668.13
2022-09-25T09:44:19.258Z,99669.19
2022-09-25T09:47:17.514Z,99667.66
2022-09-25T09:49:51.114Z,99663.75
2022-09-25T09:52:21.321Z,99650.38
2022-09-25T09:54:58.096Z,99641.94
2022-09-25T09:57:27.417Z,99638.03
2022-09-25T10:00:03.653Z,99636.16
2022-09-25T10:02:40.805Z,99632.00
2022-09-25T10:05:32.079Z,99625.59
2022-09-25T10:07:58.673Z,99620.03
2022-09-25T10:10:37.349Z,99620.41
2022-09-25T10:13:07.372Z,99624.97
2022-09-25T10:15:39.114Z,99627.03
2022-09-25T10:18:06.939Z,99624.09
2022-09-25T10:20:42.359Z,99620.19
2022-09-25T10:23:32.428Z,99621.59
2022-09-25T10:25:59.182Z,99616.88
2022-09-25T10:28:32.426Z,99608.66
2022-09-25T10:31:00.134Z,99616.91
2022-09-25T10:33:29.324Z,99617.53
2022-09-25T10:35:56.435Z,99613.59
2022-09-25T10:38:44.320Z,99604.09
2022-09-25T10:41:13.279Z,99606.38
2022-09-25T10:44:03.013Z,99605.53
2022-09-25T10:46:52.723Z,99609.25
2022-09-25T10:49:43.479Z,99615.03
2022-09-25T10:52:15.374Z,99602.41
2022-09-25T10:54:45.447Z,99594.56
2022-09-25T10:57:25.509Z,99598.72
2022-09-25T10:59:52.483Z,99585.22
2022-09-25T11:02:43.071Z,99587.50
2022-09-25T11:05:18.372Z,99587.28
2022-09-25T11:07:55.324Z,99578.41
2022-09-25T11:10:24.260Z,99573.78
2022-09-25T11:12:51.476Z,99572.63
2022-09-25T11:15:20.584Z,99574.63
2022-09-25T11:17:52.287Z,99579.41
2022-09-25T11:20:31.806Z,99573.25
2022-09-25T11:23:17.440Z,99576.03
2022-09-25T11:26:05.995Z,99564.84
2022-09-25T11:28:49.214Z,99557.22
2022-09-25T11:31:41.280Z,99545.41
2022-09-25T11:34:21.235Z,99548.47
2022-09-25T11:37:04.389Z,99553.59
2022-09-25T11:40:16.278Z,99555.78
2022-09-25T11:42:42.755Z,99558.09
2022-09-25T11:45:30.461Z,99553.63
2022-09-25T11:48:05.371Z,99548.72
2022-09-25T11:51:10.103Z,99549.53
2022-09-25T11:54:25.221Z,99562.00
2022-09-25T11:57:34.571Z,99550.47
2022-09-25T12:00:14.420Z,99543.94
2022-09-25T12:02:52.831Z,99540.13
2022-09-25T12:05:29.578Z,99538.81
2022-09-25T12:08:04.967Z,99528.16
2022-09-25T12:10:44.047Z,99535.09
2022-09-25T12:13:23.856Z,99528.34
2022-09-25T12:16:04.372Z,99531.28
2022-09-25T12:19:03.369Z,99526.28
2022-09-25T12:21:34.592Z,99524.38
2022-09-25T12:24:06.235Z,99519.09
2022-09-25T12:26:55.352Z,99520.50
2022-09-25T12:29:35.676Z,99523.94
2022-09-25T12:32:25.496Z,99521.09
2022-09-25T12:35:29.567Z,99504.56
2022-09-25T12:38:05.649Z,99512.59
2022-09-25T12:40:40.366Z,99498.03
2022-09-25T12:43:28.938Z,99500.78
2022-09-25T12:46:31.804Z,99500.66
2022-09-25T12:49:05.986Z,99501.16
2022-09-25T12:51:51.435Z,99486.38
2022-09-25T12:54:25.797Z,99483.94
2022-09-25T12:56:56.788Z,99484.50
2022-09-25T12:59:34.042Z,99496.94
2022-09-25T13:02:04.439Z,99492.38
2022-09-25T13:04:53.251Z,99492.28
2022-09-25T13:07:25.128Z,99487.31
2022-09-25T13:09:52.211Z,99483.72
2022-09-25T13:12:33.283Z,99486.16
2022-09-25T13:15:18.803Z,99483.22
2022-09-25T13:17:45.345Z,99483.63
2022-09-25T13:20:27.052Z,99482.69
2022-09-25T13:23:05.751Z,99474.97
2022-09-25T13:25:42.155Z,99462.59
2022-09-25T13:28:17.030Z,99470.63
2022-09-25T13:30:58.135Z,99465.44
2022-09-25T13:33:24.948Z,99467.06
2022-09-25T13:36:07.111Z,99465.81
2022-09-25T13:38:58.480Z,99461.63
2022-09-25T13:41:25.629Z,99470.09
2022-09-25T13:44:31.359Z,99469.78
2022-09-25T13:47:25.924Z,99464.69
2022-09-25T13:50:19.013Z,99450.78
2022-09-25T13:52:45.506Z,99457.59
2022-09-25T13:55:17.152Z,99465.09
2022-09-25T13:57:58.984Z,99451.41
2022-09-25T14:00:55.762Z,99448.19
2022-09-25T14:03:30.333Z,99444.56
2022-09-25T14:05:57.439Z,99442.72
2022-09-25T14:08:24.224Z,99450.34
2022-09-25T14:10:52.037Z,99443.34
2022-09-25T14:13:22.248Z,99442.53
2022-09-25T14:15:48.694Z,99439.59
2022-09-25T14:18:36.327Z,99441.28
2022-09-25T14:21:06.337Z,99445.03
2022-09-25T14:23:33.408Z,99442.91
2022-09-25T14:26:01.982Z,99437.97
2022-09-25T14:28:30.902Z,99433.44
2022-09-25T14:31:26.267Z,99428.16
2022-09-25T14:34:20.511Z,99428.38
2022-09-25T14:37:18.754Z,99418.66
2022-09-25T14:40:06.039Z,99414.72
2022-09-25T14:42:43.907Z,99406.47
2022-09-25T14:45:34.299Z,99402.38
2022-09-25T14:48:04.458Z,99398.63
2022-09-25T14:50:34.624Z,99404.25
2022-09-25T14:53:08.158Z,99400.94
2022-09-25T14:55:37.867Z,99401.78
2022-09-25T14:58:09.463Z,99401.56
2022-09-25T15:00:44.705Z,99403.03
2022-09-25T15:03:13.965Z,99392.25
2022-09-25T15:05:46.507Z,99386.06
2022-09-25T15:08:23.069Z,99392.88
2022-09-25T15:11:01.132Z,99394.75
2022-09-25T15:13:33.512Z,99391.25
2022-09-25T15:16:19.194Z,99393.94
2022-09-25T15:18:50.007Z,99388.56
2022-09-25T15:21:32.184Z,99389.84
2022-09-25T15:24:02.379Z,99386.13
2022-09-25T15:26:30.968Z,99385.72
2022-09-25T15:28:57.579Z,99379.13
2022-09-25T15:31:25.260Z,99380.38
2022-09-25T15:34:04.493Z,99380.38
2022-09-25T15:36:31.095Z,99380.38
2022-09-25T15:39:03.262Z,99384.06
2022-09-25T15:41:30.005Z,99370.88
2022-09-25T15:44:13.106Z,99378.31
2022-09-25T15:46:42.871Z,99380.56
2022-09-25T15:49:14.620Z,99378.28
2022-09-25T15:51:52.759Z,99376.22
2022-09-25T15:54:42.751Z,99376.84
2022-09-25T15:57:13.259Z,99375.81
2022-09-25T16:00:05.961Z,99373.94
2022-09-25T16:02:57.165Z,99373.09
2022-09-25T16:05:35.434Z,99372.47
2022-09-25T16:08:23.899Z,99374.91
2022-09-25T16:11:04.462Z,99363.56
2022-09-25T16:13:30.988Z,99367.50
2022-09-25T16:15:57.754Z,99365.59
2022-09-25T16:18:32.141Z,99361.06
2022-09-25T16:21:29.807Z,99356.28
2022-09-25T16:24:07.442Z,99350.72
2022-09-25T16:26:40.769Z,99348.22
2022-09-25T16:29:17.606Z,99352.34
2022-09-25T16:31:44.983Z,99350.91
2022-09-25T16:34:25.952Z,99349.81
2022-09-25T16:36:54.665Z,99340.94
2022-09-25T16:39:28.414Z,99333.09
2022-09-25T16:41:55.414Z,99335.75
2022-09-25T16:44:25.238Z,99345.19
2022-09-25T16:46:52.358Z,99340.84
2022-09-25T16:49:21.978Z,99339.34
2022-09-25T16:51:50.242Z,99337.41
2022-09-25T16:54:18.753Z,99336.16
2022-09-25T16:56:46.595Z,99339.41
2022-09-25T16:59:24.465Z,99340.22
2022-09-25T17:01:53.071Z,99345.34
2022-09-25T17:04:26.556Z,99336.22
2022-09-25T17:06:54.322Z,99340.31
2022-09-25T17:09:20.768Z,99341.13
2022-09-25T17:11:50.143Z,99339.59
2022-09-25T17:14:23.114Z,99345.72
2022-09-25T17:16:54.115Z,99338.63
2022-09-25T17:19:21.375Z,99344.72
2022-09-25T17:21:53.078Z,99344.69
2022-09-25T17:24:22.641Z,99342.13
2022-09-25T17:26:50.440Z,99341.88
2022-09-25T17:29:17.024Z,99344.50
2022-09-25T17:31:43.884Z,99348.56
2022-09-25T17:34:16.979Z,99347.31
2022-09-25T17:36:43.703Z,99344.19
2022-09-25T17:39:10.572Z,99350.09
2022-09-25T17:41:37.776Z,99345.50
2022-09-25T17:44:05.246Z,99340.91
2022-09-25T17:46:36.429Z,99340.44
2022-09-25T17:49:04.276Z,99335.00
2022-09-25T17:51:30.881Z,99329.63
2022-09-25T17:53:59.154Z,99330.84
2022-09-25T17:56:28.224Z,99323.16
2022-09-25T17:58:57.332Z,99327.22
2022-09-25T18:01:27.200Z,99327.44
2022-09-25T18:03:59.842Z,99321.19
2022-09-25T18:06:27.652Z,99312.72
2022-09-25T18:08:55.972Z,99313.09
2022-09-25T18:11:23.843Z,99328.47
2022-09-25T18:13:54.670Z,99322.88
2022-09-25T18:16:25.816Z,99325.91
2022-09-25T18:19:11.152Z,99320.59
2022-09-25T18:21:56.825Z,99318.25
2022-09-25T18:24:23.385Z,99311.84
2022-09-25T18:26:53.194Z,99317.19
2022-09-25T18:29:20.924Z,99312.84
2022-09-25T18:31:50.624Z,99313.97
2022-09-25T18:34:18.329Z,99312.28
2022-09-25T18:36:45.449Z,99306.03
2022-09-25T18:39:16.094Z,99315.72
2022-09-25T18:41:47.733Z,99313.03
2022-09-25T18:44:15.241Z,99309.34
2022-09-25T18:46:41.873Z,99306.03
2022-09-25T18:49:08.803Z,99304.41
2022-09-25T18:51:35.683Z,99299.44
2022-09-25T18:54:04.629Z,99303.91
2022-09-25T18:56:34.458Z,99305.94
2022-09-25T18:59:05.906Z,99302.00
2022-09-25T19:01:34.057Z,99301.16
2022-09-25T19:04:00.709Z,99310.84
2022-09-25T19:06:27.303Z,99311.66
2022-09-25T19:08:57.878Z,99305.94
2022-09-25T19:11:25.240Z,99304.47
2022-09-25T19:13:51.751Z,99306.16
2022-09-25T19:16:18.717Z,99308.56
2022-09-25T19:18:45.351Z,99307.91
2022-09-25T19:21:15.673Z,99304.03
2022-09-25T19:23:42.809Z,99305.06
2022-09-25T19:26:14.808Z,99301.72
2022-09-25T19:28:41.792Z,99306.41
2022-09-25T19:31:13.551Z,99300.63
2022-09-25T19:33:40.355Z,99293.38
2022-09-25T19:36:13.455Z,99294.56
2022-09-25T19:38:43.528Z,99285.25
2022-09-25T19:41:13.418Z,99290.97
2022-09-25T19:43:39.984Z,99278.19
2022-09-25T19:46:06.833Z,99276.25
2022-09-25T19:48:33.572Z,99287.44
2022-09-25T19:51:06.446Z,99283.69
2022-09-25T19:53:32.961Z,99282.34
2022-09-25T19:55:59.393Z,99283.28
2022-09-25T19:58:25.914Z,99283.81
2022-09-25T20:00:53.624Z,99283.31
2022-09-25T20:03:20.247Z,99278.25
2022-09-25T20:05:48.876Z,99277.81
2022-09-25T20:08:15.731Z,99277.81
2022-09-25T20:10:42.218Z,99275.19
2022-09-25T20:13:10.036Z,99268.94
2022-09-25T20:15:36.824Z,99271.97
2022-09-25T20:18:10.694Z,99271.47
2022-09-25T20:20:37.206Z,99282.56
2022-09-25T20:23:04.754Z,99276.72
2022-09-25T20:25:31.841Z,99279.81
2022-09-25T20:27:59.891Z,99288.31
2022-09-25T20:30:30.712Z,99283.81
2022-09-25T20:32:59.570Z,99282.06
2022-09-25T20:35:26.047Z,99281.03
2022-09-25T20:37:53.402Z,99282.47
2022-09-25T20:40:20.081Z,99277.56
2022-09-25T20:42:46.918Z,99280.78
2022-09-25T20:45:16.111Z,99281.84
2022-09-25T20:47:46.518Z,99287.53
2022-09-25T20:50:13.270Z,99278.50
2022-09-25T20:52:39.961Z,99277.56
2022-09-25T20:55:06.653Z,99275.16
2022-09-25T20:57:33.496Z,99276.34
2022-09-25T21:00:01.920Z,99278.88
2022-09-25T21:02:29.508Z,99274.50
2022-09-25T21:04:56.980Z,99272.41
2022-09-25T21:07:25.608Z,99277.16
2022-09-25T21:09:53.119Z,99271.75
2022-09-25T21:12:19.910Z,99279.88
2022-09-25T21:14:46.632Z,99277.34
2022-09-25T21:17:13.198Z,99276.25
2022-09-25T21:19:40.365Z,99268.19
2022-09-25T21:22:07.024Z,99269.06
2022-09-25T21:24:33.562Z,99266.38
2022-09-25T21:26:59.972Z,99271.13
2022-09-25T21:29:26.888Z,99274.50
2022-09-25T21:31:54.698Z,99269.53
2022-09-25T21:34:21.193Z,99272.50
2022-09-25T21:36:48.805Z,99268.06
2022-09-25T21:39:15.927Z,99269.78
2022-09-25T21:41:42.527Z,99267.63
2022-09-25T21:44:13.229Z,99272.69
2022-09-25T21:46:40.089Z,99265.38
2022-09-25T21:49:07.382Z,99264.94
2022-09-25T21:51:39.168Z,99263.44
2022-09-25T21:54:07.774Z,99253.50
2022-09-25T21:56:34.567Z,99251.66
2022-09-25T21:59:08.699Z,99248.53
2022-09-25T22:01:38.471Z,99246.22
2022-09-25T22:04:05.645Z,99243.22
2022-09-25T22:06:44.462Z,99240.28
2022-09-25T22:09:17.734Z,99241.97
2022-09-25T22:11:44.264Z,99229.69
2022-09-25T22:14:15.365Z,99234.03
2022-09-25T22:16:43.201Z,99234.34
2022-09-25T22:19:18.648Z,99229.75
2022-09-25T22:21:47.134Z,99225.59
2022-09-25T22:24:14.065Z,99229.78
2022-09-25T22:26:42.716Z,99223.13
2022-09-25T22:29:09.693Z,99230.25
2022-09-25T22:31:38.357Z,99224.47
2022-09-25T22:34:06.902Z,99221.97
2022-09-25T22:36:35.898Z,99223.13
2022-09-25T22:39:04.356Z,99223.81
2022-09-25T22:41:30.782Z,99217.31
2022-09-25T22:43:59.649Z,99215.16
2022-09-25T22:46:27.383Z,99214.00
2022-09-25T22:48:53.847Z,99210.16
2022-09-25T22:51:22.206Z,99206.34
2022-09-25T22:53:49.428Z,99201.38
2022-09-25T22:56:18.347Z,99203.81
2022-09-25T22:58:47.953Z,99205.88
2022-09-25T23:01:36.674Z,99203.53
2022-09-25T23:04:05.883Z,99195.19
2022-09-25T23:06:33.649Z,99194.41
2022-09-25T23:09:04.504Z,99194.06
2022-09-25T23:11:31.585Z,99189.31
2022-09-25T23:14:04.249Z,99191.16
2022-09-25T23:16:32.055Z,99184.34
2022-09-25T23:18:59.356Z,99179.06
2022-09-25T23:21:27.073Z,99176.41
2022-09-25T23:24:01.984Z,99175.59
2022-09-25T23:26:29.495Z,99174.28
2022-09-25T23:28:57.809Z,99176.78
2022-09-25T23:31:24.465Z,99182.91
2022-09-25T23:33:51.049Z,99175.59
2022-09-25T23:36:22.307Z,99182.09
2022-09-25T23:38:50.371Z,99174.63
2022-09-25T23:41:21.823Z,99173.13
2022-09-25T23:43:49.997Z,99169.66
2022-09-25T23:46:18.150Z,99168.34
2022-09-25T23:48:45.244Z,99174.47
2022-09-25T23:51:12.839Z,99175.78
2022-09-25T23:53:40.830Z,99171.97
2022-09-25T23:56:19.601Z,99173.47
2022-09-25T23:58:46.568Z,99166.66
